Time;durP1;ratioP1;P1;durP2;ratioP2;P2;SDS_P1;SDS_P2;PMS_P1;PMS_P2;Temp;Humidity;BMP_temperature;BMP_pressure;BME280_temperature;BME280_humidity;BME280_pressure;Samples;Min_cycle;Max_cycle;Signal;HPM_P1;HPM_P2
2022/10/09 00:00:44;;;;;;;;;;;;;;;6.78;100.00;101692.03;5091584;28;20046;-77
2022/10/09 00:03:10;;;;;;;;;;;;;;;6.75;100.00;101679.84;5087466;28;19912;-77
2022/10/09 00:05:35;;;;;;;;;;;;;;;6.75;100.00;101690.47;5093297;28;19923;-77
2022/10/09 00:08:01;;;;;;;;;;;;;;;6.75;100.00;101698.44;5089575;28;19915;-77
2022/10/09 00:10:26;;;;;;;;;;;;;;;6.86;100.00;101699.41;5091481;28;20308;-77
2022/10/09 00:12:52;;;;;;;;;;;;;;;7.09;100.00;101706.50;5074487;28;19912;-77
2022/10/09 00:15:17;;;;;;;;;;;;;;;7.11;100.00;101711.69;5092410;28;19908;-77
2022/10/09 00:17:42;;;;;;;;;;;;;;;7.25;100.00;101721.28;5092099;28;20372;-78
2022/10/09 00:20:08;;;;;;;;;;;;;;;7.33;100.00;101724.22;5091422;28;19912;-78
2022/10/09 00:22:34;;;;;;;;;;;;;;;7.38;100.00;101737.97;5090804;28;19908;-77
2022/10/09 00:24:59;;;;;;;;;;;;;;;7.32;100.00;101741.09;5087541;28;20131;-78
2022/10/09 00:27:24;;;;;;;;;;;;;;;7.23;100.00;101736.47;5068936;28;20488;-77
2022/10/09 00:29:50;;;;;;;;;;;;;;;7.23;100.00;101739.13;5087371;28;19916;-77
2022/10/09 00:32:15;;;;;;;;;;;;;;;7.22;100.00;101738.31;5085970;28;19915;-78
2022/10/09 00:34:40;;;;;;;;;;;;;;;7.16;100.00;101738.75;5087385;28;20402;-78
2022/10/09 00:37:06;;;;;;;;;;;;;;;7.11;100.00;101727.63;5088837;28;19979;-77
2022/10/09 00:39:31;;;;;;;;;;;;;;;7.09;100.00;101733.06;5092116;28;19912;-78
2022/10/09 00:41:57;;;;;;;;;;;;;;;7.06;100.00;101730.63;5074299;28;20337;-76
2022/10/09 00:44:41;;;;;;;;;;;;;;;7.04;100.00;101729.06;5093690;28;19911;-78
2022/10/09 00:47:10;;;;;;;;;;;;;;;7.21;100.00;101730.44;5076110;28;19923;-78
2022/10/09 00:49:35;;;;;;;;;;;;;;;7.29;100.00;101736.03;5094366;28;20007;-77
2022/10/09 00:52:02;;;;;;;;;;;;;;;7.22;100.00;101738.31;5093165;28;19954;-77
2022/10/09 00:54:29;;;;;;;;;;;;;;;7.21;100.00;101751.69;5094220;28;19907;-78
2022/10/09 00:56:54;;;;;;;;;;;;;;;7.03;100.00;101744.16;5092302;28;19923;-78
2022/10/09 00:59:20;;;;;;;;;;;;;;;6.98;100.00;101736.53;5091100;28;19916;-76
2022/10/09 01:01:45;;;;;;;;;;;;;;;7.05;100.00;101738.75;5094110;28;20288;-77
2022/10/09 01:04:11;;;;;;;;;;;;;;;7.05;100.00;101742.22;5072047;28;19913;-78
2022/10/09 01:06:59;;;;;;;;;;;;;;;7.02;100.00;101745.09;5076463;28;20014;-78
2022/10/09 01:09:36;;;;;;;;;;;;;;;7.02;100.00;101739.78;5076835;28;19955;-78
2022/10/09 01:12:04;;;;;;;;;;;;;;;7.03;100.00;101732.69;5076489;28;19912;-77
2022/10/09 01:14:38;;;;;;;;;;;;;;;7.05;100.00;101736.09;5084303;28;19912;-76
2022/10/09 01:17:16;;;;;;;;;;;;;;;7.01;100.00;101734.63;5089645;28;19912;-78
2022/10/09 01:19:44;;;;;;;;;;;;;;;6.92;100.00;101736.13;5095092;28;19993;-78
2022/10/09 01:22:28;;;;;;;;;;;;;;;6.82;100.00;101735.16;5093370;28;19934;-78
2022/10/09 01:24:55;;;;;;;;;;;;;;;6.74;100.00;101738.34;5094581;28;19912;-78
2022/10/09 01:27:23;;;;;;;;;;;;;;;6.75;100.00;101740.06;5094691;28;19912;-78
2022/10/09 01:29:51;;;;;;;;;;;;;;;6.74;100.00;101743.66;5096032;28;19999;-77
2022/10/09 01:32:18;;;;;;;;;;;;;;;6.68;100.00;101750.28;5098206;28;19965;-78
2022/10/09 01:34:44;;;;;;;;;;;;;;;6.65;100.00;101729.28;5082754;28;19930;-78
2022/10/09 01:37:11;;;;;;;;;;;;;;;6.61;100.00;101733.09;5100008;28;19919;-76
2022/10/09 01:39:37;;;;;;;;;;;;;;;6.71;100.00;101738.56;5099031;28;20361;-76
2022/10/09 01:42:03;;;;;;;;;;;;;;;6.74;100.00;101741.00;5095865;28;19912;-77
2022/10/09 01:44:29;;;;;;;;;;;;;;;6.67;100.00;101747.72;5092090;28;20002;-78
2022/10/09 01:46:55;;;;;;;;;;;;;;;6.60;100.00;101736.69;5091488;28;20850;-79
2022/10/09 01:49:40;;;;;;;;;;;;;;;6.60;100.00;101736.69;5092988;28;19927;-77
2022/10/09 01:52:09;;;;;;;;;;;;;;;6.59;100.00;101739.50;5075526;28;19915;-78
2022/10/09 01:54:47;;;;;;;;;;;;;;;6.54;100.00;101731.88;5089128;28;19912;-77
2022/10/09 01:57:17;;;;;;;;;;;;;;;6.55;100.00;101738.84;5089158;28;20455;-79
2022/10/09 01:59:43;;;;;;;;;;;;;;;6.51;100.00;101742.72;5088534;28;20339;-78
2022/10/09 02:02:09;;;;;;;;;;;;;;;6.73;100.00;101748.13;5088975;28;20288;-79
2022/10/09 02:04:36;;;;;;;;;;;;;;;6.94;100.00;101752.81;5092895;28;19908;-76
2022/10/09 02:07:02;;;;;;;;;;;;;;;7.02;100.00;101758.38;5091768;28;19919;-77
2022/10/09 02:09:28;;;;;;;;;;;;;;;7.11;100.00;101770.97;5091092;28;19916;-78
2022/10/09 02:11:56;;;;;;;;;;;;;;;7.17;100.00;101770.50;5072672;28;20373;-78
2022/10/09 02:14:22;;;;;;;;;;;;;;;7.25;100.00;101775.25;5091198;28;19907;-78
2022/10/09 02:16:53;;;;;;;;;;;;;;;7.34;100.00;101781.69;5091693;28;20335;-77
2022/10/09 02:19:21;;;;;;;;;;;;;;;7.40;100.00;101783.88;5090117;28;19912;-77
2022/10/09 02:21:54;;;;;;;;;;;;;;;7.44;100.00;101779.16;5089863;28;19975;-77
2022/10/09 02:24:20;;;;;;;;;;;;;;;7.48;100.00;101780.63;5091834;28;19920;-77
2022/10/09 02:26:46;;;;;;;;;;;;;;;7.52;100.00;101787.41;5092347;28;20281;-77
2022/10/09 02:29:12;;;;;;;;;;;;;;;7.60;100.00;101791.16;5093288;28;19942;-77
2022/10/09 02:31:38;;;;;;;;;;;;;;;7.66;100.00;101794.34;5092333;28;19912;-76
2022/10/09 02:34:05;;;;;;;;;;;;;;;7.64;100.00;101790.94;5093978;28;19912;-77
2022/10/09 02:36:31;;;;;;;;;;;;;;;7.67;100.00;101785.38;5074903;28;20437;-77
2022/10/09 02:38:57;;;;;;;;;;;;;;;7.67;100.00;101785.38;5088153;28;19916;-79
2022/10/09 02:41:22;;;;;;;;;;;;;;;7.63;100.00;101778.59;5070504;28;19935;-78
2022/10/09 02:43:47;;;;;;;;;;;;;;;7.59;100.00;101778.00;5088217;28;20380;-79
2022/10/09 02:46:13;;;;;;;;;;;;;;;7.57;100.00;101775.47;5071154;28;19912;-79
2022/10/09 02:48:39;;;;;;;;;;;;;;;7.58;100.00;101779.78;5088064;28;19938;-77
2022/10/09 02:51:04;;;;;;;;;;;;;;;7.54;100.00;101774.88;5088157;28;19908;-78
2022/10/09 02:53:29;;;;;;;;;;;;;;;7.59;100.00;101780.66;5088872;28;19923;-77
2022/10/09 02:55:55;;;;;;;;;;;;;;;7.58;100.00;101777.13;5070760;28;19963;-79
2022/10/09 02:58:20;;;;;;;;;;;;;;;7.60;100.00;101780.53;5070686;28;20357;-77
2022/10/09 03:00:52;;;;;;;;;;;;;;;7.61;100.00;101784.06;5087582;28;20303;-78
2022/10/09 03:03:18;;;;;;;;;;;;;;;7.68;100.00;101776.44;5087537;28;19965;-78
2022/10/09 03:05:43;;;;;;;;;;;;;;;7.67;100.00;101777.41;5087703;28;19908;-78
2022/10/09 03:08:08;;;;;;;;;;;;;;;7.72;100.00;101776.06;5087226;28;20334;-78
2022/10/09 03:10:35;;;;;;;;;;;;;;;7.72;100.00;101780.56;5087166;28;19962;-78
2022/10/09 03:13:01;;;;;;;;;;;;;;;7.66;100.00;101771.25;5088620;28;20023;-78
2022/10/09 03:15:26;;;;;;;;;;;;;;;7.64;100.00;101775.84;5087380;28;20007;-78
2022/10/09 03:17:51;;;;;;;;;;;;;;;7.59;100.00;101776.19;5088541;28;19919;-78
2022/10/09 03:20:17;;;;;;;;;;;;;;;7.52;100.00;101777.63;5087541;28;19911;-78
2022/10/09 03:22:42;;;;;;;;;;;;;;;7.48;100.00;101778.81;5070683;28;19958;-78
2022/10/09 03:25:07;;;;;;;;;;;;;;;7.44;100.00;101782.66;5085291;28;20033;-78
2022/10/09 03:27:33;;;;;;;;;;;;;;;7.40;100.00;101778.56;5085431;28;19999;-79
2022/10/09 03:29:58;;;;;;;;;;;;;;;7.38;100.00;101788.47;5088688;28;19919;-79
2022/10/09 03:32:24;;;;;;;;;;;;;;;7.22;100.00;101782.63;5087357;28;20019;-79
2022/10/09 03:34:49;;;;;;;;;;;;;;;7.08;100.00;101784.47;5088540;28;19911;-78
2022/10/09 03:37:14;;;;;;;;;;;;;;;6.95;100.00;101783.69;5070166;28;19916;-78
2022/10/09 03:39:40;;;;;;;;;;;;;;;6.87;100.00;101776.31;5088549;28;19916;-79
2022/10/09 03:42:05;;;;;;;;;;;;;;;6.90;100.00;101785.84;5087401;28;20292;-79
2022/10/09 03:44:30;;;;;;;;;;;;;;;7.01;100.00;101791.22;5087389;28;19908;-78
2022/10/09 03:46:56;;;;;;;;;;;;;;;7.05;100.00;101792.69;5087071;28;20003;-79
2022/10/09 03:49:21;;;;;;;;;;;;;;;7.00;100.00;101800.16;5087366;28;19919;-78
2022/10/09 03:51:47;;;;;;;;;;;;;;;6.96;100.00;101796.88;5069741;28;19999;-78
2022/10/09 03:54:12;;;;;;;;;;;;;;;7.02;100.00;101798.19;5070065;28;19912;-78
2022/10/09 03:56:37;;;;;;;;;;;;;;;6.95;100.00;101791.66;5088819;28;20390;-78
2022/10/09 03:59:04;;;;;;;;;;;;;;;6.94;100.00;101803.25;5074107;28;19934;-78
2022/10/09 04:01:30;;;;;;;;;;;;;;;6.92;100.00;101806.00;5088494;28;19922;-77
2022/10/09 04:03:55;;;;;;;;;;;;;;;6.95;100.00;101810.25;5088120;28;19990;-78
2022/10/09 04:06:20;;;;;;;;;;;;;;;7.04;100.00;101817.53;5070322;28;19938;-78
2022/10/09 04:08:45;;;;;;;;;;;;;;;7.03;100.00;101817.66;5087028;28;20390;-79
2022/10/09 04:11:11;;;;;;;;;;;;;;;7.04;100.00;101822.84;5069690;28;19916;-79
2022/10/09 04:13:36;;;;;;;;;;;;;;;7.06;100.00;101823.56;5088618;28;19908;-78
2022/10/09 04:16:01;;;;;;;;;;;;;;;7.06;100.00;101823.56;5070355;28;19912;-78
2022/10/09 04:18:27;;;;;;;;;;;;;;;7.04;100.00;101822.00;5088126;28;19919;-78
2022/10/09 04:20:53;;;;;;;;;;;;;;;7.06;100.00;101822.75;5066630;28;19912;-78
2022/10/09 04:23:19;;;;;;;;;;;;;;;7.04;100.00;101822.84;5085715;28;20372;-78
2022/10/09 04:25:44;;;;;;;;;;;;;;;6.85;100.00;101825.16;5070823;28;19923;-78
2022/10/09 04:28:10;;;;;;;;;;;;;;;6.67;100.00;101822.03;5087634;28;19939;-78
2022/10/09 04:30:35;;;;;;;;;;;;;;;6.54;100.00;101820.25;5071067;28;19916;-78
2022/10/09 04:33:00;;;;;;;;;;;;;;;6.54;100.00;101812.31;5088315;28;19912;-78
2022/10/09 04:35:25;;;;;;;;;;;;;;;6.53;100.00;101815.94;5087503;28;20045;-78
2022/10/09 04:37:51;;;;;;;;;;;;;;;6.51;100.00;101811.69;5087836;28;19912;-78
2022/10/09 04:40:16;;;;;;;;;;;;;;;6.46;100.00;101819.09;5087053;28;19912;-78
2022/10/09 04:42:41;;;;;;;;;;;;;;;6.42;100.00;101812.34;5086550;28;20353;-78
2022/10/09 04:45:07;;;;;;;;;;;;;;;6.39;100.00;101817.84;5086119;28;19916;-78
2022/10/09 04:47:32;;;;;;;;;;;;;;;6.40;100.00;101819.56;5069620;28;19912;-78
2022/10/09 04:49:59;;;;;;;;;;;;;;;6.40;100.00;101819.56;5087487;28;19912;-79
2022/10/09 04:52:24;;;;;;;;;;;;;;;6.40;100.00;101820.41;5086700;28;19920;-78
2022/10/09 04:54:50;;;;;;;;;;;;;;;6.36;100.00;101818.06;5061329;28;19923;-78
2022/10/09 04:57:15;;;;;;;;;;;;;;;6.22;100.00;101803.97;5068401;28;19916;-78
2022/10/09 04:59:41;;;;;;;;;;;;;;;6.17;100.00;101818.53;5087372;28;20030;-78
2022/10/09 05:02:06;;;;;;;;;;;;;;;6.49;100.00;101824.22;5087290;28;19912;-78
2022/10/09 05:04:31;;;;;;;;;;;;;;;6.59;100.00;101829.69;5086670;28;19912;-78
2022/10/09 05:06:57;;;;;;;;;;;;;;;6.58;100.00;101833.28;5087677;28;19916;-78
2022/10/09 05:09:22;;;;;;;;;;;;;;;6.64;100.00;101836.38;5085873;28;19916;-78
2022/10/09 05:11:47;;;;;;;;;;;;;;;6.64;100.00;101836.38;5086122;28;19912;-78
2022/10/09 05:14:13;;;;;;;;;;;;;;;6.60;100.00;101831.38;5069291;28;19923;-78
2022/10/09 05:16:38;;;;;;;;;;;;;;;6.57;100.00;101832.47;5069049;28;19915;-78
2022/10/09 05:19:03;;;;;;;;;;;;;;;6.54;100.00;101832.69;5086375;28;19972;-78
2022/10/09 05:21:29;;;;;;;;;;;;;;;6.58;100.00;101839.47;5087487;28;19916;-79
2022/10/09 05:23:55;;;;;;;;;;;;;;;6.58;100.00;101834.16;5086256;28;19916;-78
2022/10/09 05:26:21;;;;;;;;;;;;;;;6.55;100.00;101839.66;5085946;28;19962;-79
2022/10/09 05:28:47;;;;;;;;;;;;;;;6.43;100.00;101824.63;5086007;28;20079;-79
2022/10/09 05:31:23;;;;;;;;;;;;;;;6.37;100.00;101836.53;5067162;28;19912;-78
2022/10/09 05:33:48;;;;;;;;;;;;;;;6.39;100.00;101829.34;5085825;28;20396;-79
2022/10/09 05:36:14;;;;;;;;;;;;;;;6.30;100.00;101835.28;5068897;28;19955;-78
2022/10/09 05:38:39;;;;;;;;;;;;;;;6.25;100.00;101829.44;5087413;28;19912;-77
2022/10/09 05:41:06;;;;;;;;;;;;;;;6.35;100.00;101838.44;5086091;28;19919;-80
2022/10/09 05:43:35;;;;;;;;;;;;;;;6.43;100.00;101836.09;5086495;28;19915;-79
2022/10/09 05:46:05;;;;;;;;;;;;;;;6.51;100.00;101841.72;5087906;28;19916;-78
2022/10/09 05:48:30;;;;;;;;;;;;;;;6.59;100.00;101849.13;5086231;28;19975;-77
2022/10/09 05:51:04;;;;;;;;;;;;;;;6.64;100.00;101854.94;5087925;28;19947;-79
2022/10/09 05:53:30;;;;;;;;;;;;;;;6.66;100.00;101858.34;5081520;28;19911;-78
2022/10/09 05:55:55;;;;;;;;;;;;;;;6.69;100.00;101857.25;5070025;28;20045;-78
2022/10/09 05:58:20;;;;;;;;;;;;;;;6.66;100.00;101853.03;5088677;28;20494;-76
2022/10/09 06:00:45;;;;;;;;;;;;;;;6.66;100.00;101853.03;5088247;28;19912;-77
2022/10/09 06:03:11;;;;;;;;;;;;;;;6.66;100.00;101857.50;5085407;28;19912;-78
2022/10/09 06:05:36;;;;;;;;;;;;;;;6.65;100.00;101848.69;5069571;28;19912;-77
2022/10/09 06:08:01;;;;;;;;;;;;;;;6.73;100.00;101851.63;5087957;28;19994;-77
2022/10/09 06:10:26;;;;;;;;;;;;;;;6.71;100.00;101850.88;5085664;28;19912;-77
2022/10/09 06:12:51;;;;;;;;;;;;;;;6.79;100.00;101855.66;5086501;28;20325;-77
2022/10/09 06:15:17;;;;;;;;;;;;;;;6.78;100.00;101851.28;5087511;28;19915;-78
2022/10/09 06:17:42;;;;;;;;;;;;;;;6.78;100.00;101858.41;5089603;28;19959;-77
2022/10/09 06:20:08;;;;;;;;;;;;;;;6.93;100.00;101857.28;5090095;28;19918;-77
2022/10/09 06:22:33;;;;;;;;;;;;;;;6.97;100.00;101853.47;5072475;28;19919;-77
2022/10/09 06:24:58;;;;;;;;;;;;;;;7.07;100.00;101851.84;5072492;28;19912;-78
2022/10/09 06:27:23;;;;;;;;;;;;;;;7.00;100.00;101845.28;5083935;28;19973;-76
2022/10/09 06:29:49;;;;;;;;;;;;;;;7.25;100.00;101856.75;5089790;28;19958;-78
2022/10/09 06:32:14;;;;;;;;;;;;;;;7.24;100.00;101849.75;5090367;28;19933;-77
2022/10/09 06:34:39;;;;;;;;;;;;;;;7.34;100.00;101858.72;5093036;28;19912;-76
2022/10/09 06:37:04;;;;;;;;;;;;;;;7.41;100.00;101865.28;5090128;28;20412;-76
2022/10/09 06:39:30;;;;;;;;;;;;;;;7.86;100.00;101868.06;5072551;28;19916;-78
2022/10/09 06:41:55;;;;;;;;;;;;;;;8.07;100.00;101870.88;5089091;28;19912;-76
2022/10/09 06:44:38;;;;;;;;;;;;;;;8.47;100.00;101869.63;5089837;28;19912;-77
2022/10/09 06:47:03;;;;;;;;;;;;;;;8.66;100.00;101869.84;5091317;28;19916;-78
2022/10/09 06:49:29;;;;;;;;;;;;;;;8.80;100.00;101860.75;5088073;28;20016;-79
2022/10/09 06:51:54;;;;;;;;;;;;;;;9.02;100.00;101859.88;5089397;28;20372;-78
2022/10/09 06:54:19;;;;;;;;;;;;;;;9.05;100.00;101848.97;5084117;28;19954;-79
2022/10/09 06:56:45;;;;;;;;;;;;;;;9.29;100.00;101840.75;5088235;28;19923;-80
2022/10/09 06:59:10;;;;;;;;;;;;;;;9.29;100.00;101838.97;5068934;28;19912;-78
2022/10/09 07:01:35;;;;;;;;;;;;;;;9.60;100.00;101835.50;5085632;28;20361;-78
2022/10/09 07:04:02;;;;;;;;;;;;;;;9.88;100.00;101847.34;5082174;28;19912;-78
2022/10/09 07:06:29;;;;;;;;;;;;;;;9.84;100.00;101814.78;5083485;28;19923;-78
2022/10/09 07:08:56;;;;;;;;;;;;;;;10.04;100.00;101822.88;5068621;28;19916;-78
2022/10/09 07:11:23;;;;;;;;;;;;;;;9.98;100.00;101800.25;5087314;28;19919;-78
2022/10/09 07:13:49;;;;;;;;;;;;;;;10.10;100.00;101804.50;5087579;28;19912;-78
2022/10/09 07:16:18;;;;;;;;;;;;;;;10.22;100.00;101796.41;5085636;28;20002;-80
2022/10/09 07:18:43;;;;;;;;;;;;;;;10.52;100.00;101806.25;5084075;28;20288;-78
2022/10/09 07:21:08;;;;;;;;;;;;;;;10.67;100.00;101791.50;5086290;28;19916;-78
2022/10/09 07:23:34;;;;;;;;;;;;;;;10.68;100.00;101782.53;5082379;28;20300;-78
2022/10/09 07:26:00;;;;;;;;;;;;;;;10.68;100.00;101771.00;5081039;28;19922;-78
2022/10/09 07:28:26;;;;;;;;;;;;;;;10.64;100.00;101775.78;5083009;28;19919;-78
2022/10/09 07:30:52;;;;;;;;;;;;;;;10.13;100.00;101745.53;5082226;28;19923;-78
2022/10/09 07:33:17;;;;;;;;;;;;;;;10.19;100.00;101767.34;5082200;28;19912;-78
2022/10/09 07:35:42;;;;;;;;;;;;;;;9.87;100.00;101776.31;5086502;28;19912;-77
2022/10/09 07:38:07;;;;;;;;;;;;;;;10.35;100.00;101818.44;5084392;28;19911;-77
2022/10/09 07:40:33;;;;;;;;;;;;;;;11.13;100.00;101813.25;5082444;28;19912;-78
2022/10/09 07:42:59;;;;;;;;;;;;;;;11.34;100.00;101792.53;5065096;28;19965;-77
2022/10/09 07:45:24;;;;;;;;;;;;;;;11.83;100.00;101769.22;5066922;28;19965;-78
2022/10/09 07:47:50;;;;;;;;;;;;;;;11.63;100.00;101706.06;5070164;28;20027;-78
2022/10/09 07:50:15;;;;;;;;;;;;;;;12.18;100.00;101703.47;5086626;28;19912;-77
2022/10/09 07:52:40;;;;;;;;;;;;;;;12.40;100.00;101696.00;5086742;28;19951;-78
2022/10/09 07:55:06;;;;;;;;;;;;;;;13.21;100.00;101663.72;5083889;28;20383;-79
2022/10/09 07:57:31;;;;;;;;;;;;;;;13.69;100.00;101581.81;5083860;28;19912;-78
2022/10/09 07:59:56;;;;;;;;;;;;;;;14.53;100.00;101526.19;5069231;28;20296;-79
2022/10/09 08:02:22;;;;;;;;;;;;;;;13.80;100.00;101390.13;5086344;28;19935;-78
2022/10/09 08:04:47;;;;;;;;;;;;;;;14.90;100.00;101389.56;5069524;28;20328;-79
2022/10/09 08:07:12;;;;;;;;;;;;;;;14.47;100.00;101193.75;5087140;28;19912;-78
2022/10/09 08:09:38;;;;;;;;;;;;;;;14.92;100.00;101312.28;5086370;28;19916;-78
2022/10/09 08:12:03;;;;;;;;;;;;;;;15.88;100.00;101215.81;5086455;28;19916;-78
2022/10/09 08:14:29;;;;;;;;;;;;;;;15.74;100.00;101088.25;5079294;28;19982;-79
2022/10/09 08:16:54;;;;;;;;;;;;;;;14.95;100.00;100857.56;5087515;28;20353;-78
2022/10/09 08:19:19;;;;;;;;;;;;;;;14.63;100.00;101063.03;5086008;28;20013;-78
2022/10/09 08:21:44;;;;;;;;;;;;;;;15.45;100.00;101108.72;5085652;28;20405;-78
2022/10/09 08:24:11;;;;;;;;;;;;;;;14.91;100.00;101170.78;5089172;28;20048;-78
2022/10/09 08:26:36;;;;;;;;;;;;;;;14.61;100.00;101157.25;5086980;28;19908;-78
2022/10/09 08:29:02;;;;;;;;;;;;;;;15.15;100.00;101278.16;5086827;28;19916;-77
2022/10/09 08:31:28;;;;;;;;;;;;;;;16.31;100.00;101297.59;5084891;28;19939;-78
2022/10/09 08:33:54;;;;;;;;;;;;;;;17.03;100.00;100988.50;5083686;28;20356;-78
2022/10/09 08:36:19;;;;;;;;;;;;;;;17.50;100.00;100798.72;5086160;28;19919;-77
2022/10/09 08:38:45;;;;;;;;;;;;;;;16.20;100.00;100646.19;5086879;28;19911;-78
2022/10/09 08:41:15;;;;;;;;;;;;;;;16.88;100.00;100945.50;5087857;28;19912;-77
2022/10/09 08:43:42;;;;;;;;;;;;;;;18.12;100.00;100774.19;5085464;28;19912;-78
2022/10/09 08:46:30;;;;;;;;;;;;;;;18.07;100.00;100491.16;5085085;28;20338;-78
2022/10/09 08:48:57;;;;;;;;;;;;;;;18.25;98.04;100522.03;5086047;28;19916;-78
2022/10/09 08:51:24;;;;;;;;;;;;;;;18.34;94.95;100436.94;5068096;28;20029;-79
2022/10/09 08:53:53;;;;;;;;;;;;;;;18.74;94.23;100550.97;5085165;28;20850;-78
2022/10/09 08:56:18;;;;;;;;;;;;;;;17.00;96.96;100447.66;5083332;28;19912;-78
2022/10/09 08:58:44;;;;;;;;;;;;;;;16.32;100.00;100655.38;5068498;28;19954;-78
2022/10/09 09:01:21;;;;;;;;;;;;;;;16.64;100.00;100803.88;5086305;28;19923;-78
2022/10/09 09:03:46;;;;;;;;;;;;;;;15.53;100.00;100782.25;5085182;28;19959;-78
2022/10/09 09:06:17;;;;;;;;;;;;;;;15.80;100.00;100905.28;5084625;28;20333;-78
2022/10/09 09:09:02;;;;;;;;;;;;;;;17.25;100.00;101029.69;5084805;28;19916;-77
2022/10/09 09:11:49;;;;;;;;;;;;;;;17.85;100.00;100943.56;5084819;28;20159;-77
2022/10/09 09:14:14;;;;;;;;;;;;;;;16.68;99.34;100703.53;5067886;28;19915;-79
2022/10/09 09:16:45;;;;;;;;;;;;;;;17.93;98.42;100932.53;5085956;28;20353;-78
2022/10/09 09:19:34;;;;;;;;;;;;;;;16.93;96.45;100718.34;5084719;28;19912;-78
2022/10/09 09:21:59;;;;;;;;;;;;;;;17.81;94.39;100818.91;5085921;28;20029;-78
2022/10/09 09:24:34;;;;;;;;;;;;;;;17.50;92.64;100681.84;5084403;28;20369;-77
2022/10/09 09:27:02;;;;;;;;;;;;;;;17.35;90.81;100590.34;5085860;28;19965;-77
2022/10/09 09:29:27;;;;;;;;;;;;;;;17.08;94.53;100813.41;5085514;28;19918;-77
2022/10/09 09:31:55;;;;;;;;;;;;;;;16.82;95.14;100811.47;5067955;28;19912;-77
2022/10/09 09:34:33;;;;;;;;;;;;;;;16.83;96.08;100902.94;5085856;28;20380;-77
2022/10/09 09:36:59;;;;;;;;;;;;;;;17.98;92.62;100923.81;5084584;28;19919;-78
2022/10/09 09:39:27;;;;;;;;;;;;;;;17.65;89.56;100655.47;5085497;28;19911;-79
2022/10/09 09:41:54;;;;;;;;;;;;;;;18.26;88.89;100764.16;5085787;28;19916;-78
2022/10/09 09:44:20;;;;;;;;;;;;;;;17.49;85.53;100392.25;5085822;28;20395;-77
2022/10/09 09:46:46;;;;;;;;;;;;;;;18.79;87.66;100891.09;5085126;28;19917;-77
2022/10/09 09:49:18;;;;;;;;;;;;;;;17.38;86.27;100522.44;5084453;28;19919;-78
2022/10/09 09:51:44;;;;;;;;;;;;;;;18.14;87.00;100758.59;5087198;28;19947;-76
2022/10/09 09:54:19;;;;;;;;;;;;;;;17.27;83.54;100329.66;5088359;28;19947;-77
2022/10/09 09:56:45;;;;;;;;;;;;;;;17.20;87.18;100676.88;5089594;28;19947;-77
2022/10/09 09:59:25;;;;;;;;;;;;;;;18.10;84.90;100700.66;5089539;28;19947;-77
2022/10/09 10:02:11;;;;;;;;;;;;;;;17.39;83.11;100423.41;5087852;28;19963;-76
2022/10/09 10:04:36;;;;;;;;;;;;;;;17.65;84.75;100636.56;5082945;28;20002;-77
2022/10/09 10:07:01;;;;;;;;;;;;;;;17.68;82.78;100520.03;5087723;28;20003;-76
2022/10/09 10:09:27;;;;;;;;;;;;;;;17.87;83.66;100653.34;5087903;28;19920;-76
2022/10/09 10:11:55;;;;;;;;;;;;;;;17.66;84.89;100740.78;5089182;28;19946;-76
2022/10/09 10:14:20;;;;;;;;;;;;;;;17.96;82.34;100590.97;5085882;28;19916;-77
2022/10/09 10:16:49;;;;;;;;;;;;;;;18.53;81.29;100668.41;5070797;28;19919;-77
2022/10/09 10:19:20;;;;;;;;;;;;;;;17.17;81.66;100388.66;5086186;28;19959;-77
2022/10/09 10:21:47;;;;;;;;;;;;;;;18.69;83.07;100896.94;5087512;28;19912;-77
2022/10/09 10:24:18;;;;;;;;;;;;;;;18.41;78.36;100377.44;5089065;28;19941;-77
2022/10/09 10:26:51;;;;;;;;;;;;;;;16.59;82.58;100377.84;5088965;28;19916;-77
2022/10/09 10:29:19;;;;;;;;;;;;;;;17.01;84.44;100680.41;5087779;28;19916;-77
2022/10/09 10:31:59;;;;;;;;;;;;;;;17.11;85.91;100804.06;5087501;28;19912;-76
2022/10/09 10:34:26;;;;;;;;;;;;;;;17.28;82.86;100649.69;5087191;28;19912;-77
2022/10/09 10:36:56;;;;;;;;;;;;;;;17.82;82.82;100776.56;5087514;28;20327;-77
2022/10/09 10:39:28;;;;;;;;;;;;;;;17.28;82.61;100601.13;5088656;28;19912;-77
2022/10/09 10:41:56;;;;;;;;;;;;;;;18.43;81.55;100821.31;5087428;28;19911;-77
2022/10/09 10:44:30;;;;;;;;;;;;;;;17.52;80.36;100505.16;5088812;28;20007;-76
2022/10/09 10:46:59;;;;;;;;;;;;;;;19.01;79.84;100852.94;5070112;28;19957;-77
2022/10/09 10:49:25;;;;;;;;;;;;;;;19.25;76.40;100605.91;5069462;28;19927;-77
2022/10/09 10:52:09;;;;;;;;;;;;;;;18.87;79.64;100815.16;5081944;28;19916;-77
2022/10/09 10:54:37;;;;;;;;;;;;;;;20.28;76.36;100820.34;5087267;28;20873;-76
2022/10/09 10:57:08;;;;;;;;;;;;;;;19.32;73.12;100321.66;5088351;28;19916;-76
2022/10/09 10:59:38;;;;;;;;;;;;;;;20.10;73.60;100605.16;5087116;28;20773;-77
2022/10/09 11:02:22;;;;;;;;;;;;;;;20.15;70.68;100315.31;5084883;28;19911;-77
2022/10/09 11:04:51;;;;;;;;;;;;;;;18.95;73.93;100425.34;5087143;28;19916;-77
2022/10/09 11:07:35;;;;;;;;;;;;;;;18.62;73.38;100319.41;5070104;28;19961;-77
2022/10/09 11:10:06;;;;;;;;;;;;;;;18.21;74.67;100320.88;5069638;28;19923;-77
2022/10/09 11:12:37;;;;;;;;;;;;;;;18.65;72.82;100284.63;5087040;28;19997;-77
2022/10/09 11:15:03;;;;;;;;;;;;;;;18.73;74.24;100510.59;5085717;28;19913;-77
2022/10/09 11:17:31;;;;;;;;;;;;;;;19.23;74.91;100754.16;5086704;28;19974;-77
2022/10/09 11:20:08;;;;;;;;;;;;;;;19.22;71.83;100425.00;5069560;28;19915;-77
2022/10/09 11:22:33;;;;;;;;;;;;;;;19.00;70.75;100243.41;5069729;28;19912;-77
2022/10/09 11:25:37;;;;;;;;;;;;;;;19.18;71.17;100449.00;5086352;28;20828;-78
2022/10/09 11:28:06;;;;;;;;;;;;;;;19.87;68.59;100318.72;5048167;28;19927;-77
2022/10/09 11:30:40;;;;;;;;;;;;;;;18.13;70.42;100082.38;5066288;28;20003;-77
2022/10/09 11:33:11;;;;;;;;;;;;;;;16.26;72.89;99880.44;5064811;28;20002;-76
2022/10/09 11:35:41;;;;;;;;;;;;;;;16.65;77.18;100553.03;5062795;28;19919;-76
2022/10/09 11:38:18;;;;;;;;;;;;;;;17.66;77.32;100829.06;5064631;28;19913;-78
2022/10/09 11:40:43;;;;;;;;;;;;;;;17.93;74.14;100597.63;5064749;28;19950;-77
2022/10/09 11:43:21;;;;;;;;;;;;;;;16.97;73.77;100315.09;5064793;28;19912;-76
2022/10/09 11:45:49;;;;;;;;;;;;;;;17.68;74.22;100592.94;5061915;28;19916;-76
2022/10/09 11:48:33;;;;;;;;;;;;;;;18.58;71.70;100578.53;5064289;28;20026;-77
2022/10/09 11:51:03;;;;;;;;;;;;;;;18.12;68.87;100113.16;5064604;28;19912;-77
2022/10/09 11:53:30;;;;;;;;;;;;;;;18.49;70.99;100479.84;5064274;28;20448;-77
2022/10/09 11:56:18;;;;;;;;;;;;;;;17.59;70.18;100126.44;5064209;28;19978;-76
2022/10/09 11:58:53;;;;;;;;;;;;;;;17.81;71.53;100367.13;5063905;28;19991;-77
2022/10/09 12:01:23;;;;;;;;;;;;;;;17.29;70.20;100103.66;5087088;28;19919;-77
2022/10/09 12:03:59;;;;;;;;;;;;;;;16.74;73.77;100416.16;5069215;28;19916;-76
2022/10/09 12:06:24;;;;;;;;;;;;;;;16.09;75.70;100424.09;5085027;28;20478;-76
2022/10/09 12:08:52;;;;;;;;;;;;;;;16.64;75.64;100639.47;5068608;28;19916;-77
2022/10/09 12:11:18;;;;;;;;;;;;;;;17.05;75.08;100665.47;5086908;28;20333;-77
2022/10/09 12:13:44;;;;;;;;;;;;;;;18.40;71.76;100683.88;5086240;28;19918;-77
2022/10/09 12:16:10;;;;;;;;;;;;;;;19.29;69.14;100617.94;5084106;28;19915;-77
2022/10/09 12:18:39;;;;;;;;;;;;;;;18.55;69.29;100378.94;5084603;28;19912;-77
2022/10/09 12:21:06;;;;;;;;;;;;;;;18.46;69.65;100435.16;5085617;28;19916;-77
2022/10/09 12:23:33;;;;;;;;;;;;;;;17.56;72.77;100519.06;5067830;28;19916;-77
2022/10/09 12:25:59;;;;;;;;;;;;;;;16.35;72.13;100088.41;5086852;28;20487;-77
2022/10/09 12:28:26;;;;;;;;;;;;;;;16.53;75.59;100661.63;5085072;28;19920;-77
2022/10/09 12:30:52;;;;;;;;;;;;;;;17.36;73.95;100736.88;5086817;28;19908;-77
2022/10/09 12:33:24;;;;;;;;;;;;;;;16.87;73.04;100437.72;5086588;28;19919;-77
2022/10/09 12:36:01;;;;;;;;;;;;;;;17.18;72.24;100482.03;5085179;28;19912;-76
2022/10/09 12:38:28;;;;;;;;;;;;;;;17.91;71.89;100673.47;5086570;28;19919;-77